Time;durP1;ratioP1;P1;durP2;ratioP2;P2;SDS_P1;SDS_P2;PMS_P1;PMS_P2;Temp;Humidity;BMP_temperature;BMP_pressure;BME280_temperature;BME280_humidity;BME280_pressure;Samples;Min_cycle;Max_cycle;Signal;HPM_P1;HPM_P2
2022/09/21 00:01:08;;;;;;;5.60;3.40;;;;;;;10.49;49.63;100392.86;117156;1187;23557;-65
2022/09/21 00:03:36;;;;;;;6.40;3.60;;;;;;;10.47;49.64;100391.31;117206;1187;23650;-59
2022/09/21 00:06:09;;;;;;;6.30;3.80;;;;;;;10.45;49.87;100389.05;117166;1186;23576;-59
2022/09/21 00:08:37;;;;;;;4.50;3.10;;;;;;;10.44;49.72;100390.63;117131;1186;22999;-65
2022/09/21 00:11:04;;;;;;;6.70;3.50;;;;;;;10.43;49.66;100392.05;117009;1187;23544;-59
2022/09/21 00:13:32;;;;;;;6.70;3.40;;;;;;;10.43;49.87;100391.35;117039;1188;23450;-65
2022/09/21 00:16:00;;;;;;;5.20;3.60;;;;;;;10.43;49.88;100392.92;117162;1187;23031;-59
2022/09/21 00:18:29;;;;;;;6.80;3.50;;;;;;;10.43;49.87;100395.04;117172;1186;21857;-59
2022/09/21 00:20:56;;;;;;;5.30;3.50;;;;;;;10.43;49.82;100391.36;117162;1186;23646;-59
2022/09/21 00:23:23;;;;;;;6.00;3.40;;;;;;;10.42;49.91;100391.88;117131;1186;23566;-65
2022/09/21 00:25:50;;;;;;;6.30;3.60;;;;;;;10.40;49.98;100392.09;117223;1186;23618;-59
2022/09/21 00:28:17;;;;;;;8.00;3.70;;;;;;;10.40;50.15;100389.63;117026;1188;23566;-65
2022/09/21 00:30:44;;;;;;;6.30;3.80;;;;;;;10.38;50.11;100388.73;117049;1188;23559;-65
2022/09/21 00:33:12;;;;;;;5.50;3.60;;;;;;;10.35;50.10;100389.66;117026;1187;23557;-64
2022/09/21 00:35:39;;;;;;;6.20;4.30;;;;;;;10.34;50.06;100393.89;117013;1187;21952;-64
2022/09/21 00:38:06;;;;;;;6.30;3.90;;;;;;;10.34;50.10;100395.47;117134;1187;23597;-61
2022/09/21 00:40:34;;;;;;;8.10;4.30;;;;;;;10.33;50.15;100397.23;117290;1185;23554;-66
2022/09/21 00:43:14;;;;;;;4.80;3.30;;;;;;;10.33;50.18;100394.42;117272;1188;24159;-65
2022/09/21 00:45:42;;;;;;;6.80;3.80;;;;;;;10.32;50.26;100392.86;117151;1187;23556;-65
2022/09/21 00:48:11;;;;;;;6.20;3.80;;;;;;;10.31;50.19;100393.04;117301;1185;22816;-58
2022/09/21 00:50:43;;;;;;;4.60;3.50;;;;;;;10.29;50.06;100392.54;117039;1187;23569;-64
2022/09/21 00:53:10;;;;;;;5.90;3.70;;;;;;;10.26;50.12;100390.28;117077;1188;23452;-65
2022/09/21 00:55:40;;;;;;;6.10;3.50;;;;;;;10.22;50.14;100388.57;117106;1187;23573;-60
2022/09/21 00:58:10;;;;;;;6.30;3.60;;;;;;;10.19;50.12;100385.61;117191;1188;24232;-58
2022/09/21 01:00:38;;;;;;;5.30;3.50;;;;;;;10.15;50.20;100386.18;117235;1182;21882;-65
2022/09/21 01:03:05;;;;;;;7.10;4.20;;;;;;;10.11;50.18;100385.00;117205;1188;23449;-63
2022/09/21 01:05:32;;;;;;;5.40;3.60;;;;;;;10.04;50.38;100383.48;117183;1187;24171;-58
2022/09/21 01:08:01;;;;;;;5.60;3.90;;;;;;;9.98;50.38;100380.40;117319;1186;24158;-65
2022/09/21 01:10:31;;;;;;;6.60;4.40;;;;;;;9.92;50.46;100375.20;117154;1189;21854;-58
2022/09/21 01:13:04;;;;;;;5.50;4.10;;;;;;;9.87;50.44;100376.48;117196;1186;23576;-58
2022/09/21 01:15:59;;;;;;;6.00;3.80;;;;;;;9.85;50.65;100375.10;117168;1188;21855;-64
2022/09/21 01:18:26;;;;;;;5.70;3.80;;;;;;;9.83;50.71;100377.21;117301;1185;22995;-58
2022/09/21 01:21:20;;;;;;;6.10;4.40;;;;;;;9.83;50.82;100379.66;117238;1188;23554;-64
2022/09/21 01:24:20;;;;;;;5.50;3.80;;;;;;;9.84;50.92;100384.21;117280;1186;23872;-58
2022/09/21 01:26:59;;;;;;;5.60;4.10;;;;;;;9.82;51.04;100385.98;117109;1188;23576;-65
2022/09/21 01:29:32;;;;;;;6.70;3.90;;;;;;;9.80;51.12;100384.24;117265;1186;23488;-65
2022/09/21 01:32:07;;;;;;;5.30;3.90;;;;;;;9.80;51.34;100388.45;117235;1186;21855;-58
2022/09/21 01:34:58;;;;;;;5.50;4.10;;;;;;;9.81;51.36;100384.24;117168;1188;22049;-65
2022/09/21 01:37:42;;;;;;;5.90;3.60;;;;;;;9.85;51.52;100380.54;117209;1187;24243;-58
2022/09/21 01:40:12;;;;;;;5.90;5.00;;;;;;;9.85;51.59;100379.65;117158;1188;23554;-65
2022/09/21 01:42:40;;;;;;;5.40;3.90;;;;;;;9.88;51.63;100380.31;117230;1185;21855;-65
2022/09/21 01:45:07;;;;;;;5.90;3.90;;;;;;;9.87;51.64;100378.58;117057;1187;23462;-58
2022/09/21 01:47:35;;;;;;;7.90;4.40;;;;;;;9.87;51.69;100380.68;117039;1187;23448;-65
2022/09/21 01:50:02;;;;;;;5.90;4.40;;;;;;;9.88;51.78;100384.16;117189;1186;21861;-58
2022/09/21 01:52:35;;;;;;;6.40;4.30;;;;;;;9.90;51.89;100382.06;117129;1187;21885;-59
2022/09/21 01:55:07;;;;;;;6.90;5.00;;;;;;;9.92;51.98;100391.67;117215;1188;21852;-58
2022/09/21 01:57:38;;;;;;;6.60;4.60;;;;;;;9.93;51.86;100396.05;117148;1189;21850;-58
2022/09/21 02:00:06;;;;;;;6.50;4.80;;;;;;;9.95;51.83;100394.45;117183;1188;24166;-65
2022/09/21 02:02:46;;;;;;;5.70;3.90;;;;;;;9.96;51.81;100393.56;117169;1186;23570;-65
2022/09/21 02:05:15;;;;;;;6.70;3.90;;;;;;;9.96;51.79;100392.15;117256;1186;23554;-59
2022/09/21 02:07:41;;;;;;;5.50;4.00;;;;;;;9.97;51.72;100393.89;117141;1188;23041;-58
2022/09/21 02:10:14;;;;;;;6.30;4.50;;;;;;;9.96;51.79;100394.43;117258;1186;23566;-65
2022/09/21 02:12:42;;;;;;;7.00;4.60;;;;;;;9.96;51.78;100393.20;117054;1188;23554;-65
2022/09/21 02:15:10;;;;;;;6.40;4.10;;;;;;;9.95;51.74;100397.25;117281;1186;23554;-58
2022/09/21 02:17:59;;;;;;;6.20;4.50;;;;;;;9.92;51.74;100393.27;117161;1188;23890;-59
2022/09/21 02:20:31;;;;;;;6.80;4.50;;;;;;;9.88;51.84;100391.54;117129;1188;21896;-58
2022/09/21 02:23:03;;;;;;;6.70;4.50;;;;;;;9.86;52.02;100392.61;117190;1186;23567;-65
2022/09/21 02:25:38;;;;;;;6.00;4.50;;;;;;;9.85;51.90;100397.00;117122;1186;24165;-65
2022/09/21 02:28:31;;;;;;;7.30;4.20;;;;;;;9.84;51.78;100398.06;117161;1188;21859;-58
2022/09/21 02:31:15;;;;;;;9.00;4.60;;;;;;;9.81;51.92;100399.31;117056;1187;22090;-58
2022/09/21 02:33:56;;;;;;;8.30;4.60;;;;;;;9.76;51.90;100402.33;117118;1187;23555;-65
2022/09/21 02:37:04;;;;;;;9.00;4.60;;;;;;;9.71;52.05;100405.71;117104;1188;23448;-63
2022/09/21 02:39:35;;;;;;;7.00;4.30;;;;;;;9.64;52.12;100412.41;116736;1191;23608;-58
2022/09/21 02:42:13;;;;;;;9.30;4.70;;;;;;;9.61;52.33;100416.48;116762;1191;22935;-65
2022/09/21 02:44:44;;;;;;;10.00;5.00;;;;;;;9.58;52.54;100410.53;117014;1189;21858;-65
2022/09/21 02:47:13;;;;;;;;;;;;;;;9.59;52.70;100414.55;117058;1188;23262;-65
2022/09/21 02:49:47;;;;;;;7.20;4.50;;;;;;;9.60;52.72;100413.33;117189;1188;23483;-65
2022/09/21 02:52:15;;;;;;;7.80;4.80;;;;;;;9.60;52.62;100420.15;117207;1186;21861;-65
2022/09/21 02:54:43;;;;;;;8.40;4.80;;;;;;;9.62;52.57;100418.91;117266;1186;24274;-64
2022/09/21 02:57:11;;;;;;;6.30;4.80;;;;;;;9.64;52.65;100420.48;117247;1186;23465;-64
2022/09/21 02:59:39;;;;;;;7.60;4.60;;;;;;;9.67;52.75;100422.21;117239;1188;23872;-65
2022/09/21 03:02:11;;;;;;;6.60;4.40;;;;;;;9.69;52.70;100416.95;117291;1186;24035;-65
2022/09/21 03:04:40;;;;;;;6.50;4.70;;;;;;;9.73;52.73;100420.58;117267;1186;21855;-64
2022/09/21 03:07:09;;;;;;;7.60;4.90;;;;;;;9.74;52.67;100413.90;117246;1187;22733;-58
2022/09/21 03:09:37;;;;;;;;;;;;;;;9.74;52.78;100415.84;117291;1186;23524;-65
2022/09/21 03:12:04;;;;;;;6.50;4.90;;;;;;;9.71;52.69;100418.52;117185;1188;23554;-63
2022/09/21 03:14:33;;;;;;;8.10;4.70;;;;;;;9.68;52.86;100422.55;117165;1188;23615;-58
2022/09/21 03:16:59;;;;;;;5.80;4.50;;;;;;;9.66;52.91;100425.90;117227;1186;24150;-59
2022/09/21 03:19:28;;;;;;;8.30;4.80;;;;;;;9.64;52.81;100424.33;117104;1187;22422;-58
2022/09/21 03:21:55;;;;;;;7.60;5.10;;;;;;;9.62;52.89;100426.80;117239;1186;23552;-65
2022/09/21 03:27:09;;;;;;;7.90;5.30;;;;;;;9.52;53.02;100429.15;117075;1187;23544;-59
2022/09/21 03:29:35;;;;;;;8.60;4.70;;;;;;;9.45;53.02;100428.15;117304;1186;23554;-60
2022/09/21 03:32:03;;;;;;;10.20;5.70;;;;;;;9.44;53.24;100429.02;117275;1185;23637;-59
2022/09/21 03:34:32;;;;;;;9.30;4.80;;;;;;;9.43;53.33;100427.11;117246;1188;23569;-67
2022/09/21 03:37:01;;;;;;;7.70;4.90;;;;;;;9.42;53.29;100424.84;117083;1186;21845;-67
2022/09/21 03:39:28;;;;;;;8.70;5.10;;;;;;;9.42;53.57;100423.79;117243;1185;23551;-59
2022/09/21 03:41:55;;;;;;;9.90;5.40;;;;;;;9.43;53.72;100426.23;117170;1188;24296;-60
2022/09/21 03:44:26;;;;;;;7.60;4.90;;;;;;;9.44;53.77;100426.23;117264;1187;23461;-59
2022/09/21 03:46:52;;;;;;;9.70;5.40;;;;;;;9.45;53.82;100425.19;117125;1186;24200;-65
2022/09/21 03:49:19;;;;;;;10.20;5.50;;;;;;;9.48;53.94;100427.25;117160;1187;23554;-59
2022/09/21 03:51:47;;;;;;;8.80;5.50;;;;;;;9.51;54.03;100428.98;117149;1187;23554;-59
2022/09/21 03:54:14;;;;;;;6.60;5.20;;;;;;;9.52;53.93;100432.48;117280;1187;21855;-59
2022/09/21 03:56:42;;;;;;;9.60;5.00;;;;;;;9.52;53.97;100436.85;117282;1187;24187;-58
2022/09/21 03:59:08;;;;;;;9.50;5.50;;;;;;;9.51;53.99;100435.98;117205;1188;23554;-67
2022/09/21 04:01:41;;;;;;;8.10;5.20;;;;;;;9.49;54.10;100438.27;117197;1187;21870;-66
2022/09/21 04:04:09;;;;;;;8.10;5.00;;;;;;;9.50;54.07;100443.52;117245;1186;23566;-59
2022/09/21 04:06:37;;;;;;;8.60;5.10;;;;;;;9.50;54.10;100440.52;117291;1186;23570;-67
2022/09/21 04:09:04;;;;;;;9.20;5.40;;;;;;;9.55;54.20;100440.51;117145;1188;23556;-68
2022/09/21 04:11:32;;;;;;;6.50;5.00;;;;;;;9.57;54.30;100438.39;117219;1188;23551;-58
2022/09/21 04:13:59;;;;;;;10.00;5.20;;;;;;;9.59;54.37;100439.96;117141;1187;24232;-60
2022/09/21 04:16:27;;;;;;;9.10;5.10;;;;;;;9.62;54.43;100442.92;117120;1187;22925;-67
2022/09/21 04:18:54;;;;;;;8.80;5.60;;;;;;;9.64;54.65;100449.21;117213;1188;23555;-58
2022/09/21 04:21:21;;;;;;;7.50;5.20;;;;;;;9.68;54.60;100449.01;117207;1188;21857;-67
2022/09/21 04:23:48;;;;;;;10.00;5.70;;;;;;;9.73;54.40;100447.91;117257;1185;23649;-67
2022/09/21 04:26:24;;;;;;;12.00;6.00;;;;;;;9.77;54.64;100448.92;117230;1186;23449;-66
2022/09/21 04:28:52;;;;;;;9.10;5.40;;;;;;;9.84;54.66;100450.98;117084;1185;21861;-59
2022/09/21 04:31:18;;;;;;;8.30;5.60;;;;;;;9.92;54.43;100448.99;117079;1187;23544;-67
2022/09/21 04:33:49;;;;;;;7.30;5.40;;;;;;;10.03;54.45;100450.12;117157;1187;23653;-67
2022/09/21 04:36:17;;;;;;;9.50;5.90;;;;;;;10.11;54.99;100451.45;117302;1186;23100;-66
2022/09/21 04:38:45;;;;;;;7.70;5.90;;;;;;;10.16;54.71;100452.28;117269;1186;23643;-67
2022/09/21 04:41:13;;;;;;;8.60;6.40;;;;;;;10.24;54.73;100453.77;117247;1186;24143;-67
2022/09/21 04:43:43;;;;;;;8.30;5.50;;;;;;;10.33;54.72;100450.02;117178;1186;22004;-67
2022/09/21 04:46:12;;;;;;;7.70;4.80;;;;;;;10.44;54.86;100450.29;117153;1186;23561;-60
2022/09/21 04:48:40;;;;;;;6.60;5.10;;;;;;;10.58;54.85;100456.27;117093;1187;22009;-59
2022/09/21 04:51:08;;;;;;;7.40;5.60;;;;;;;10.70;55.22;100456.14;117163;1187;23447;-67
2022/09/21 04:53:38;;;;;;;9.70;6.50;;;;;;;10.81;55.08;100456.71;117153;1186;24172;-66
2022/09/21 04:56:06;;;;;;;7.00;5.20;;;;;;;10.92;55.30;100458.50;117185;1187;21858;-59
2022/09/21 04:58:33;;;;;;;8.90;5.10;;;;;;;11.05;55.40;100455.36;117279;1185;23567;-59
2022/09/21 05:01:00;;;;;;;8.80;5.60;;;;;;;11.20;55.47;100452.70;117947;1185;22151;-59
2022/09/21 05:03:27;;;;;;;7.50;5.70;;;;;;;11.33;55.24;100452.35;119324;1186;22135;-60
2022/09/21 05:05:55;;;;;;;7.60;5.00;;;;;;;11.45;55.44;100450.42;117766;1186;21856;-66
2022/09/21 05:11:19;;;;;;;7.00;4.60;;;;;;;11.69;55.53;100446.02;117870;1182;22964;-68
2022/09/21 05:13:47;;;;;;;7.30;5.00;;;;;;;11.83;55.73;100450.89;119156;1187;22128;-59
2022/09/21 05:16:15;;;;;;;7.10;4.50;;;;;;;11.97;55.58;100445.03;118433;1187;21859;-66
2022/09/21 05:18:43;;;;;;;6.80;4.40;;;;;;;12.12;55.34;100443.41;117071;1187;21972;-59
2022/09/21 05:21:12;;;;;;;5.60;4.30;;;;;;;12.25;55.44;100444.05;117151;1187;23547;-59
2022/09/21 05:23:39;;;;;;;20.50;5.40;;;;;;;12.38;55.40;100439.25;117128;1187;22996;-59
2022/09/21 05:26:05;;;;;;;6.10;4.90;;;;;;;12.49;55.47;100439.04;117784;1187;23644;-68
2022/09/21 05:28:34;;;;;;;8.60;4.70;;;;;;;12.59;55.28;100444.11;117939;1188;21926;-59
2022/09/21 05:31:11;;;;;;;7.20;5.00;;;;;;;12.73;55.53;100444.53;117306;1186;24150;-68
2022/09/21 05:34:11;;;;;;;7.10;4.60;;;;;;;12.90;55.27;100443.85;117092;1188;23553;-59
2022/09/21 05:36:57;;;;;;;7.90;4.50;;;;;;;13.09;55.39;100439.59;117357;1187;23475;-59
2022/09/21 05:39:26;;;;;;;9.30;5.10;;;;;;;13.24;55.44;100445.08;117190;1185;24231;-69
2022/09/21 05:41:53;;;;;;;8.00;4.40;;;;;;;13.36;55.00;100446.73;117065;1187;21894;-59
2022/09/21 05:44:37;;;;;;;6.00;4.60;;;;;;;13.49;54.83;100440.46;117004;1187;23191;-59
2022/09/21 05:47:23;;;;;;;7.20;4.30;;;;;;;13.60;54.83;100439.88;116923;1188;21854;-60
2022/09/21 05:50:18;;;;;;;6.00;4.50;;;;;;;13.71;54.73;100441.53;116999;1187;21901;-60
2022/09/21 05:52:53;;;;;;;8.40;4.30;;;;;;;13.83;54.82;100440.38;117015;1187;22809;-70
2022/09/21 05:55:29;;;;;;;8.20;4.40;;;;;;;13.97;54.56;100442.33;117020;1184;21857;-60
2022/09/21 05:58:13;;;;;;;7.50;4.10;;;;;;;14.06;54.45;100436.98;117164;1187;23574;-69
2022/09/21 06:00:59;;;;;;;6.90;4.60;;;;;;;14.13;54.39;100439.08;116941;1187;22461;-68
2022/09/21 06:03:31;;;;;;;7.60;4.20;;;;;;;14.20;54.37;100436.77;117174;1187;23567;-60
2022/09/21 06:05:58;;;;;;;6.60;4.20;;;;;;;14.30;54.02;100442.89;116948;1187;23532;-61
2022/09/21 06:08:26;;;;;;;4.90;3.70;;;;;;;14.35;54.07;100443.28;117083;1187;23652;-60
2022/09/21 06:10:53;;;;;;;6.10;4.50;;;;;;;14.42;54.23;100446.27;117013;1188;21979;-69
2022/09/21 06:13:21;;;;;;;5.90;4.30;;;;;;;14.52;54.25;100448.48;117098;1187;23624;-69
2022/09/21 06:15:48;;;;;;;8.90;5.90;;;;;;;14.65;54.08;100448.10;117043;1187;23620;-61
2022/09/21 06:18:15;;;;;;;11.20;6.20;;;;;;;14.81;53.88;100449.80;117233;1186;23570;-60
2022/09/21 06:20:45;;;;;;;11.90;7.40;;;;;;;14.95;53.48;100451.89;117052;1187;21859;-60
2022/09/21 06:23:14;;;;;;;7.90;5.70;;;;;;;15.03;53.19;100451.29;117094;1186;23465;-60
2022/09/21 06:25:41;;;;;;;8.20;5.90;;;;;;;15.10;53.26;100450.02;117146;1187;21868;-69
2022/09/21 06:28:11;;;;;;;8.60;5.60;;;;;;;15.19;52.97;100448.70;117174;1186;21872;-60
2022/09/21 06:30:38;;;;;;;6.20;5.10;;;;;;;15.27;53.01;100445.63;117360;1185;23471;-68
2022/09/21 06:33:06;;;;;;;5.10;4.30;;;;;;;15.34;52.80;100445.23;117237;1189;21877;-60
2022/09/21 06:35:34;;;;;;;8.90;6.20;;;;;;;15.44;52.71;100450.94;117202;1186;23467;-61
2022/09/21 06:38:05;;;;;;;7.50;5.70;;;;;;;15.51;52.63;100447.16;117313;1188;21863;-71
2022/09/21 06:40:34;;;;;;;9.50;5.70;;;;;;;15.55;52.32;100449.35;117247;1186;23412;-60
2022/09/21 06:43:01;;;;;;;9.60;6.20;;;;;;;15.57;52.37;100447.34;117247;1186;22926;-70
2022/09/21 06:45:29;;;;;;;7.60;4.80;;;;;;;15.67;52.34;100450.39;117217;1186;23563;-60
2022/09/21 06:47:57;;;;;;;13.10;8.80;;;;;;;15.83;52.14;100448.48;117242;1185;24142;-60
2022/09/21 06:50:25;;;;;;;9.50;6.80;;;;;;;15.91;51.96;100442.75;117380;1185;21848;-59
2022/09/21 06:52:51;;;;;;;6.80;5.40;;;;;;;15.96;51.91;100441.86;117369;1185;22185;-59
2022/09/21 06:55:18;;;;;;;8.10;6.10;;;;;;;16.08;52.01;100438.29;117338;1186;23527;-69
2022/09/21 06:57:46;;;;;;;13.40;7.80;;;;;;;16.28;51.98;100436.70;117215;1186;21855;-59
2022/09/21 07:00:13;;;;;;;12.00;6.50;;;;;;;16.48;51.45;100434.58;117203;1186;21952;-70
2022/09/21 07:02:44;;;;;;;7.90;5.30;;;;;;;16.62;51.47;100434.42;117023;1187;23573;-70
2022/09/21 07:05:11;;;;;;;;;;;;;;;16.77;51.17;100436.54;117042;1187;21840;-70
2022/09/21 07:07:39;;;;;;;11.30;5.50;;;;;;;16.95;51.12;100432.36;117012;1187;23579;-59
2022/09/21 07:10:07;;;;;;;8.10;5.60;;;;;;;17.14;50.67;100435.21;117016;1187;23656;-59
2022/09/21 07:12:40;;;;;;;7.80;4.70;;;;;;;17.19;50.32;100433.07;116997;1187;22932;-60
2022/09/21 07:15:09;;;;;;;5.90;3.60;;;;;;;17.28;50.33;100437.48;117100;1188;23582;-69
2022/09/21 07:17:38;;;;;;;6.20;4.00;;;;;;;17.41;50.25;100434.86;116944;1188;22117;-70
2022/09/21 07:20:06;;;;;;;6.20;4.20;;;;;;;17.61;49.98;100432.45;117033;1188;22929;-60
2022/09/21 07:22:33;;;;;;;6.10;4.10;;;;;;;17.78;50.13;100431.39;117070;1186;23634;-60
2022/09/21 07:25:00;;;;;;;5.00;3.80;;;;;;;17.94;49.53;100429.69;117113;1188;23617;-70
2022/09/21 07:27:29;;;;;;;6.70;3.50;;;;;;;18.04;49.43;100426.64;117092;1187;23606;-70
2022/09/21 07:29:55;;;;;;;3.90;2.90;;;;;;;18.17;49.14;100428.20;116949;1189;22930;-60
2022/09/21 07:32:27;;;;;;;4.00;2.70;;;;;;;18.31;48.80;100433.98;117057;1186;24131;-70
2022/09/21 07:34:55;;;;;;;7.30;4.00;;;;;;;18.38;48.91;100429.05;116865;1187;22160;-70
2022/09/21 07:37:23;;;;;;;9.80;4.70;;;;;;;18.51;48.62;100430.13;116989;1187;21922;-70
2022/09/21 07:39:51;;;;;;;8.80;6.60;;;;;;;18.55;48.44;100430.43;116922;1188;22254;-60
2022/09/21 07:42:20;;;;;;;6.90;5.00;;;;;;;18.51;48.34;100427.07;116870;1187;22817;-71
2022/09/21 07:44:47;;;;;;;5.60;4.60;;;;;;;18.44;48.34;100430.41;116832;1187;21863;-60
2022/09/21 07:47:15;;;;;;;7.60;5.10;;;;;;;18.41;48.49;100432.83;117008;1187;24188;-60
2022/09/21 07:49:42;;;;;;;6.80;5.10;;;;;;;18.50;48.61;100428.89;117045;1187;23615;-70
2022/09/21 07:52:11;;;;;;;8.10;4.70;;;;;;;18.67;48.26;100434.73;117107;1185;21828;-60
2022/09/21 07:54:39;;;;;;;4.20;3.50;;;;;;;18.78;47.81;100436.91;117003;1187;23573;-71
2022/09/21 07:59:52;;;;;;;5.40;3.90;;;;;;;19.10;47.66;100438.11;116868;1187;23605;-71
2022/09/21 08:02:19;;;;;;;7.90;4.20;;;;;;;19.26;47.47;100435.40;117049;1188;23654;-60
2022/09/21 08:04:46;;;;;;;4.90;3.40;;;;;;;19.32;47.00;100434.40;117055;1187;23499;-60
2022/09/21 08:07:14;;;;;;;8.80;3.20;;;;;;;19.32;46.80;100433.34;117092;1187;23481;-60
2022/09/21 08:09:44;;;;;;;5.20;2.60;;;;;;;19.24;46.34;100436.74;117282;1187;22198;-61
2022/09/21 08:12:10;;;;;;;4.60;3.10;;;;;;;19.11;46.36;100440.95;117129;1184;23621;-61
2022/09/21 08:14:40;;;;;;;4.50;3.20;;;;;;;18.95;46.50;100440.77;116951;1187;21881;-61
2022/09/21 08:17:09;;;;;;;6.40;4.20;;;;;;;18.89;46.77;100438.90;116998;1187;21899;-61
2022/09/21 08:19:36;;;;;;;5.00;3.90;;;;;;;18.92;47.00;100442.13;116958;1187;21845;-60
2022/09/21 08:22:04;;;;;;;6.20;3.50;;;;;;;18.95;46.74;100443.25;117029;1187;22861;-61
2022/09/21 08:24:32;;;;;;;7.50;5.00;;;;;;;19.02;46.47;100442.58;117023;1187;22926;-61
2022/09/21 08:26:59;;;;;;;6.50;4.20;;;;;;;19.03;46.72;100438.10;117200;1186;23136;-58
2022/09/21 08:29:27;;;;;;;6.40;4.80;;;;;;;19.13;46.56;100439.74;117065;1188;23652;-59
2022/09/21 08:31:55;;;;;;;5.80;4.10;;;;;;;19.25;46.01;100440.10;117114;1187;23560;-59
2022/09/21 08:34:23;;;;;;;9.80;4.40;;;;;;;19.36;46.01;100442.59;117053;1187;23554;-59
2022/09/21 08:36:51;;;;;;;8.00;3.40;;;;;;;19.41;45.75;100434.72;117057;1188;23471;-69
2022/09/21 08:39:22;;;;;;;16.40;5.20;;;;;;;19.40;45.88;100441.33;116756;1189;21862;-69
2022/09/21 08:42:09;;;;;;;6.70;3.60;;;;;;;19.41;45.75;100437.56;116928;1189;23464;-71
2022/09/21 08:44:47;;;;;;;5.40;2.40;;;;;;;19.41;45.64;100445.40;117015;1188;24179;-59
2022/09/21 08:47:17;;;;;;;3.10;2.80;;;;;;;19.46;45.47;100444.23;117120;1188;21862;-71
2022/09/21 08:49:48;;;;;;;4.50;2.30;;;;;;;19.54;45.72;100444.58;117029;1188;21847;-63
2022/09/21 08:52:17;;;;;;;4.30;2.70;;;;;;;19.71;45.47;100437.88;117128;1188;24251;-60
2022/09/21 08:54:50;;;;;;;4.80;2.50;;;;;;;19.93;45.04;100435.55;117159;1187;23559;-61
2022/09/21 08:57:18;;;;;;;5.50;2.40;;;;;;;20.08;44.63;100436.43;117277;1186;24172;-71
2022/09/21 08:59:47;;;;;;;7.10;2.50;;;;;;;20.22;44.68;100434.80;117072;1188;21868;-60
2022/09/21 09:02:32;;;;;;;4.20;2.80;;;;;;;20.27;44.14;100433.86;117236;1182;23562;-60
2022/09/21 09:05:40;;;;;;;3.20;2.50;;;;;;;20.38;44.48;100432.41;117141;1185;23560;-60
2022/09/21 09:08:12;;;;;;;5.70;2.40;;;;;;;20.55;43.92;100426.50;116985;1188;23003;-69
2022/09/21 09:10:49;;;;;;;;;;;;;;;20.55;43.86;100425.09;117296;1186;21838;-69
2022/09/21 09:13:44;;;;;;;7.00;2.10;;;;;;;20.62;44.12;100421.14;117234;1186;22469;-60
2022/09/21 09:16:38;;;;;;;5.40;2.10;;;;;;;20.82;43.44;100421.89;117245;1186;23569;-70
2022/09/21 09:19:05;;;;;;;7.70;2.60;;;;;;;20.91;43.31;100418.17;117092;1186;21946;-59
2022/09/21 09:21:38;;;;;;;6.40;2.60;;;;;;;20.87;42.50;100415.38;117396;1186;24151;-60
2022/09/21 09:24:11;;;;;;;5.20;3.00;;;;;;;20.94;43.70;100409.31;117180;1183;23601;-60
2022/09/21 09:26:56;;;;;;;4.30;2.20;;;;;;;21.05;43.51;100410.98;117115;1188;23545;-60
2022/09/21 09:29:28;;;;;;;4.40;2.30;;;;;;;21.16;43.43;100410.92;117265;1186;23557;-71
2022/09/21 09:31:55;;;;;;;3.90;2.00;;;;;;;21.35;43.47;100408.64;117298;1185;22545;-71
2022/09/21 09:34:31;;;;;;;5.00;2.30;;;;;;;21.50;43.08;100407.08;116966;1184;22929;-59
2022/09/21 09:37:05;;;;;;;2.70;2.00;;;;;;;21.72;42.82;100403.88;117268;1186;21874;-70
2022/09/21 09:39:32;;;;;;;3.50;1.80;;;;;;;21.89;42.56;100401.23;117168;1189;21872;-69
2022/09/21 09:42:09;;;;;;;3.40;1.90;;;;;;;22.04;42.32;100395.94;117247;1186;23579;-60
2022/09/21 09:44:37;;;;;;;5.00;2.20;;;;;;;22.11;41.78;100394.05;116860;1188;23656;-70
2022/09/21 09:47:33;;;;;;;5.20;2.00;;;;;;;22.16;41.31;100398.54;118563;1186;23555;-60
2022/09/21 09:50:07;;;;;;;3.80;2.20;;;;;;;22.16;40.88;100396.22;117078;1188;23598;-59
2022/09/21 09:52:36;;;;;;;2.90;1.80;;;;;;;22.21;40.57;100398.47;117138;1188;22914;-71
2022/09/21 09:55:37;;;;;;;3.80;2.00;;;;;;;22.25;39.96;100392.11;117031;1188;23739;-71
2022/09/21 09:58:06;;;;;;;3.90;2.10;;;;;;;22.28;40.30;100387.11;117115;1183;22946;-59
2022/09/21 10:00:33;;;;;;;2.90;1.80;;;;;;;22.36;40.31;100386.80;117106;1187;22974;-59
2022/09/21 10:03:01;;;;;;;3.10;2.10;;;;;;;22.36;39.74;100393.61;117197;1186;23555;-70
2022/09/21 10:05:32;;;;;;;5.10;2.40;;;;;;;22.36;39.70;100395.24;117220;1187;21845;-59
2022/09/21 10:07:59;;;;;;;4.00;2.20;;;;;;;22.46;40.61;100394.96;117304;1188;23544;-72
2022/09/21 10:10:32;;;;;;;2.50;1.80;;;;;;;22.60;39.51;100401.44;116998;1188;22043;-72
2022/09/21 10:13:15;;;;;;;7.80;2.50;;;;;;;22.72;39.96;100400.17;117137;1186;24238;-71
2022/09/21 10:15:46;;;;;;;12.70;2.10;;;;;;;22.83;39.20;100393.96;116882;1187;23559;-72
2022/09/21 10:18:25;;;;;;;4.50;1.80;;;;;;;22.93;39.10;100390.95;117170;1186;22622;-71
2022/09/21 10:21:03;;;;;;;3.40;1.60;;;;;;;22.93;38.57;100394.25;116980;1187;23563;-60
2022/09/21 10:23:32;;;;;;;2.80;1.90;;;;;;;22.88;38.07;100390.64;116938;1186;21911;-60
2022/09/21 10:26:04;;;;;;;4.40;2.00;;;;;;;22.73;38.11;100392.06;117074;1187;22901;-60
2022/09/21 10:28:31;;;;;;;2.70;1.90;;;;;;;22.73;39.16;100390.50;117041;1188;21855;-60
2022/09/21 10:31:16;;;;;;;5.40;2.00;;;;;;;22.91;39.30;100382.88;116969;1186;24149;-67
2022/09/21 10:33:52;;;;;;;3.10;1.90;;;;;;;23.22;39.23;100381.98;117078;1188;23455;-59
2022/09/21 10:36:31;;;;;;;2.80;1.80;;;;;;;23.53;38.92;100374.77;117146;1186;22984;-71
2022/09/21 10:39:17;;;;;;;2.80;1.70;;;;;;;23.72;37.46;100377.09;117148;1186;23020;-60
2022/09/21 10:41:49;;;;;;;1.80;1.40;;;;;;;23.73;37.41;100377.91;117193;1187;23560;-61
2022/09/21 10:44:21;;;;;;;2.20;1.60;;;;;;;23.63;37.59;100374.66;116906;1187;22629;-71
2022/09/21 10:46:49;;;;;;;5.50;1.70;;;;;;;23.47;37.54;100371.92;117115;1188;24194;-72
2022/09/21 10:49:20;;;;;;;2.40;1.40;;;;;;;23.35;36.88;100374.40;117111;1188;23464;-59
2022/09/21 10:51:48;;;;;;;3.10;1.60;;;;;;;23.21;36.95;100376.13;116886;1187;23813;-70
2022/09/21 10:54:22;;;;;;;3.40;1.70;;;;;;;23.08;37.38;100375.20;117042;1188;22930;-59
2022/09/21 10:56:56;;;;;;;2.10;1.50;;;;;;;22.89;37.32;100374.08;116881;1189;24284;-60
2022/09/21 10:59:30;;;;;;;1.50;1.20;;;;;;;22.64;37.79;100372.74;117100;1186;21867;-60
2022/09/21 11:01:59;;;;;;;2.00;1.30;;;;;;;22.57;38.06;100373.75;117147;1188;23553;-71
2022/09/21 11:04:31;;;;;;;2.50;1.50;;;;;;;22.64;38.12;100376.04;116978;1188;21865;-59
2022/09/21 11:07:14;;;;;;;2.70;1.60;;;;;;;22.57;37.66;100370.37;117130;1188;24223;-71
2022/09/21 11:10:01;;;;;;;4.50;1.70;;;;;;;22.38;37.89;100369.02;116959;1188;21985;-71
2022/09/21 11:12:52;;;;;;;4.20;2.00;;;;;;;22.14;37.88;100370.09;117084;1188;23584;-71
2022/09/21 11:15:36;;;;;;;3.60;1.90;;;;;;;21.98;38.24;100366.06;117282;1188;23195;-72
2022/09/21 11:18:07;;;;;;;2.20;1.80;;;;;;;22.03;37.61;100366.14;117278;1186;23582;-61
2022/09/21 11:20:51;;;;;;;2.60;1.60;;;;;;;22.06;38.03;100368.08;117265;1186;22924;-68
2022/09/21 11:23:40;;;;;;;2.40;1.50;;;;;;;22.09;37.58;100370.26;117158;1188;23891;-67
2022/09/21 11:26:16;;;;;;;3.80;1.60;;;;;;;22.06;37.30;100370.27;117260;1186;23557;-61
2022/09/21 11:29:00;;;;;;;2.60;1.30;;;;;;;21.90;37.56;100367.24;117217;1189;23497;-69
2022/09/21 11:32:09;;;;;;;2.40;1.50;;;;;;;21.63;37.52;100363.66;117187;1188;23598;-59
2022/09/21 11:35:05;;;;;;;1.70;1.20;;;;;;;21.60;38.05;100366.17;117211;1186;22929;-60
2022/09/21 11:37:50;;;;;;;2.20;1.40;;;;;;;21.84;37.52;100356.37;116994;1188;21936;-59
2022/09/21 11:40:52;;;;;;;3.50;1.80;;;;;;;22.00;37.73;100355.02;117080;1189;24224;-70
2022/09/21 11:43:34;;;;;;;3.50;1.60;;;;;;;22.30;37.35;100351.23;117103;1187;23560;-60
2022/09/21 11:46:07;;;;;;;3.00;1.50;;;;;;;22.48;37.35;100353.37;117105;1188;24336;-70
2022/09/21 11:48:49;;;;;;;1.40;1.10;;;;;;;22.62;37.60;100347.20;117114;1187;23120;-59
2022/09/21 11:51:43;;;;;;;1.80;1.20;;;;;;;22.69;37.17;100346.88;117097;1188;21855;-60